Time;durP1;ratioP1;P1;durP2;ratioP2;P2;SDS_P1;SDS_P2;PMS_P1;PMS_P2;Temp;Humidity;BMP_temperature;BMP_pressure;BME280_temperature;BME280_humidity;BME280_pressure;Samples;Min_cycle;Max_cycle;Signal;HPM_P1;HPM_P2
2022/03/09 00:01:17;;;;;;;10.23;6.13;;;0.80;99.90;;;;;;5075440;28;20112;-81
2022/03/09 00:03:42;;;;;;;13.45;6.78;;;0.50;99.90;;;;;;5077022;28;20060;-82
2022/03/09 00:06:08;;;;;;;12.57;6.68;;;0.20;99.90;;;;;;5076234;28;20024;-82
2022/03/09 00:08:34;;;;;;;12.15;7.03;;;0.20;99.90;;;;;;5057612;28;20424;-81
2022/03/09 00:10:59;;;;;;;11.43;6.70;;;0.20;99.90;;;;;;5056261;28;20035;-81
2022/03/09 00:13:25;;;;;;;11.57;6.03;;;0.10;99.90;;;;;;5055952;28;20063;-82
2022/03/09 00:15:50;;;;;;;12.45;6.72;;;0.10;99.90;;;;;;5056254;28;20021;-81
2022/03/09 00:18:16;;;;;;;13.13;6.28;;;0.10;1.00;;;;;;5074860;28;20039;-82
2022/03/09 00:20:41;;;;;;;14.68;6.88;;;0.40;99.90;;;;;;5076140;28;20024;-82
2022/03/09 00:23:07;;;;;;;12.18;6.78;;;0.40;99.90;;;;;;5075702;28;20448;-82
2022/03/09 00:25:33;;;;;;;12.43;6.65;;;0.30;99.90;;;;;;5057602;28;20550;-82
2022/03/09 00:27:58;;;;;;;12.85;6.47;;;0.20;99.90;;;;;;5055173;28;20060;-81
2022/03/09 00:30:24;;;;;;;11.55;6.43;;;0.30;99.90;;;;;;5055821;28;20025;-81
2022/03/09 00:32:50;;;;;;;13.98;7.50;;;0.30;99.90;;;;;;5054337;28;20025;-81
2022/03/09 00:35:15;;;;;;;12.05;6.28;;;0.30;99.90;;;;;;5055742;28;20021;-81
2022/03/09 00:37:41;;;;;;;12.48;6.90;;;0.30;99.90;;;;;;5055287;28;20036;-81
2022/03/09 00:40:07;;;;;;;14.02;8.55;;;0.20;99.90;;;;;;5056401;28;20033;-81
2022/03/09 00:42:37;;;;;;;15.38;7.30;;;0.20;99.90;;;;;;5057743;28;20017;-82
2022/03/09 00:45:05;;;;;;;11.95;7.07;;;0.20;99.90;;;;;;5059737;28;20495;-81
2022/03/09 00:47:30;;;;;;;13.23;7.15;;;0.20;99.90;;;;;;5059320;28;20033;-81
2022/03/09 00:49:56;;;;;;;13.18;6.88;;;0.10;99.90;;;;;;5060288;28;20039;-81
2022/03/09 00:52:21;;;;;;;14.38;7.15;;;0.00;99.90;;;;;;5058942;28;20025;-81
2022/03/09 00:54:47;;;;;;;11.43;6.30;;;-0.20;99.90;;;;;;5059047;28;20037;-81
2022/03/09 00:57:13;;;;;;;14.15;7.65;;;-0.20;99.90;;;;;;5058101;28;20025;-81
2022/03/09 00:59:39;;;;;;;14.95;7.50;;;0.40;99.90;;;;;;5069359;28;20029;-81
2022/03/09 01:02:04;;;;;;;10.90;6.43;;;0.40;99.90;;;;;;5080460;28;20031;-81
2022/03/09 01:04:30;;;;;;;12.93;6.95;;;0.60;99.90;;;;;;5080117;28;20021;-81
2022/03/09 01:06:56;;;;;;;11.63;6.20;;;0.50;99.90;;;;;;5060115;28;20029;-81
2022/03/09 01:09:21;;;;;;;12.23;6.47;;;0.10;99.90;;;;;;5059863;28;20025;-81
2022/03/09 01:11:47;;;;;;;11.57;6.30;;;0.10;99.90;;;;;;5059836;28;20051;-82
2022/03/09 01:14:12;;;;;;;12.75;7.03;;;-0.10;99.90;;;;;;5058963;28;20029;-81
2022/03/09 01:16:38;;;;;;;13.60;7.03;;;-0.10;99.90;;;;;;5058346;28;20049;-81
2022/03/09 01:19:03;;;;;;;12.20;6.63;;;-0.20;99.90;;;;;;5057742;28;20207;-81
2022/03/09 01:21:30;;;;;;;13.77;7.00;;;-0.20;99.90;;;;;;5058682;28;20369;-81
2022/03/09 01:23:56;;;;;;;15.02;7.20;;;-0.20;99.90;;;;;;5068735;28;20484;-81
2022/03/09 01:26:21;;;;;;;13.88;7.25;;;0.00;99.90;;;;;;5063882;28;20032;-81
2022/03/09 01:28:47;;;;;;;13.38;7.38;;;0.00;99.90;;;;;;5058468;28;20053;-81
2022/03/09 01:31:12;;;;;;;12.68;7.35;;;-0.10;99.90;;;;;;5077626;28;20035;-81
2022/03/09 01:33:38;;;;;;;15.35;7.47;;;-0.30;99.90;;;;;;5070262;28;20028;-81
2022/03/09 01:36:03;;;;;;;12.50;6.68;;;-0.30;99.90;;;;;;5057804;28;20496;-81
2022/03/09 01:38:29;;;;;;;12.70;7.57;;;-0.50;99.90;;;;;;5057806;28;20029;-81
2022/03/09 01:40:54;;;;;;;15.60;8.05;;;-0.60;99.90;;;;;;5055685;28;20052;-81
2022/03/09 01:43:20;;;;;;;15.88;8.05;;;-0.60;99.90;;;;;;5056352;28;20032;-81
2022/03/09 01:45:46;;;;;;;14.77;7.85;;;-0.80;99.90;;;;;;5056810;28;20361;-82
2022/03/09 01:48:11;;;;;;;13.63;7.32;;;-0.80;1.00;;;;;;5056994;28;20025;-81
2022/03/09 01:50:37;;;;;;;14.98;8.02;;;-0.80;1.00;;;;;;5073852;28;20099;-81
2022/03/09 01:53:02;;;;;;;15.35;7.85;;;-0.80;1.00;;;;;;5078277;28;20024;-81
2022/03/09 01:55:28;;;;;;;14.50;7.57;;;-0.90;1.00;;;;;;5063536;28;20087;-81
2022/03/09 01:57:53;;;;;;;15.45;8.25;;;-1.00;1.00;;;;;;5057562;28;20063;-81
2022/03/09 02:00:21;;;;;;;15.70;8.55;;;-0.90;99.90;;;;;;5057840;28;20104;-81
2022/03/09 02:02:46;;;;;;;14.02;7.13;;;-1.00;1.00;;;;;;5057963;28;20042;-81
2022/03/09 02:05:14;;;;;;;14.63;7.88;;;-1.00;1.00;;;;;;5058318;28;20058;-81
2022/03/09 02:10:24;;;;;;;16.80;7.75;;;-1.10;1.00;;;;;;5065056;28;20032;-81
2022/03/09 02:15:35;;;;;;;13.45;7.72;;;-1.30;1.00;;;;;;5043942;28;20065;-76
2022/03/09 02:18:02;;;;;;;15.30;7.28;;;-1.40;1.00;;;;;;5053076;28;20053;-75
2022/03/09 02:20:58;;;;;;;15.57;8.10;;;-1.40;1.00;;;;;;5054595;28;20025;-75
2022/03/09 02:23:24;;;;;;;16.33;8.10;;;-1.40;1.00;;;;;;5054903;28;20071;-76
2022/03/09 02:25:49;;;;;;;16.77;8.20;;;-1.60;1.00;;;;;;5054297;28;20052;-76
2022/03/09 02:28:51;;;;;;;17.60;7.50;;;-1.50;1.00;;;;;;5054252;28;20037;-75
2022/03/09 02:31:17;;;;;;;15.38;7.55;;;-1.50;1.00;;;;;;5054299;28;20040;-76
2022/03/09 02:33:58;;;;;;;15.23;8.32;;;-1.40;1.00;;;;;;5054040;28;20445;-76
2022/03/09 02:36:24;;;;;;;14.77;8.00;;;-1.50;1.00;;;;;;5054462;28;20017;-75
2022/03/09 02:38:49;;;;;;;14.18;8.07;;;-1.50;1.00;;;;;;5054199;28;20112;-76
2022/03/09 02:41:15;;;;;;;16.88;8.73;;;-1.30;1.00;;;;;;5052914;28;20024;-75
2022/03/09 02:43:40;;;;;;;14.95;8.48;;;-1.30;1.00;;;;;;5052852;28;20056;-75
2022/03/09 02:46:06;;;;;;;14.05;8.25;;;-1.50;1.00;;;;;;5052868;28;20044;-75
2022/03/09 02:48:31;;;;;;;16.20;7.95;;;-1.60;1.00;;;;;;5054006;28;20108;-76
2022/03/09 02:50:57;;;;;;;13.38;7.75;;;-1.60;1.00;;;;;;5034195;28;20066;-76
2022/03/09 02:53:22;;;;;;;15.15;7.70;;;-1.70;1.00;;;;;;5033997;28;20025;-75
2022/03/09 02:55:48;;;;;;;15.93;8.50;;;-1.70;1.00;;;;;;5033856;28;20108;-75
2022/03/09 02:58:13;;;;;;;17.30;9.55;;;-1.70;1.00;;;;;;5033805;28;20112;-76
2022/03/09 03:00:39;;;;;;;15.82;8.30;;;-1.60;1.00;;;;;;5033958;28;20028;-76
2022/03/09 03:03:04;;;;;;;17.33;8.43;;;-1.60;1.00;;;;;;5032127;28;20022;-75
2022/03/09 03:05:30;;;;;;;14.88;7.72;;;-1.70;1.00;;;;;;5040020;28;20021;-75
2022/03/09 03:07:55;;;;;;;14.35;8.38;;;-1.60;1.00;;;;;;5053849;28;20036;-76
2022/03/09 03:10:21;;;;;;;12.95;7.60;;;-1.80;1.00;;;;;;5053695;28;20031;-75
2022/03/09 03:12:47;;;;;;;19.85;8.85;;;-1.80;1.00;;;;;;5053615;28;20108;-75
2022/03/09 03:15:12;;;;;;;14.77;8.13;;;-1.70;1.00;;;;;;5052186;28;20369;-75
2022/03/09 03:17:38;;;;;;;18.80;8.57;;;-1.70;1.00;;;;;;5053073;28;20202;-75
2022/03/09 03:20:05;;;;;;;15.45;8.57;;;-1.60;1.00;;;;;;5053423;28;20025;-75
2022/03/09 03:22:31;;;;;;;14.98;7.63;;;-1.50;1.00;;;;;;5053234;28;20056;-75
2022/03/09 03:24:56;;;;;;;15.02;8.00;;;-1.40;1.00;;;;;;5053511;28;20507;-75
2022/03/09 03:27:22;;;;;;;15.15;7.93;;;-1.60;1.00;;;;;;5053599;28;20520;-76
2022/03/09 03:29:47;;;;;;;18.13;8.73;;;-1.60;99.90;;;;;;5053381;28;20029;-74
2022/03/09 03:32:13;;;;;;;14.80;7.95;;;-1.40;1.00;;;;;;5053498;28;20028;-76
2022/03/09 03:34:39;;;;;;;14.55;8.05;;;-1.20;1.00;;;;;;5053351;28;20021;-75
2022/03/09 03:37:05;;;;;;;15.30;7.95;;;-1.40;1.00;;;;;;5053565;28;20047;-76
2022/03/09 03:39:31;;;;;;;16.92;8.25;;;-1.50;1.00;;;;;;5053327;28;20029;-76
2022/03/09 03:41:57;;;;;;;16.50;8.05;;;-1.80;1.00;;;;;;5053323;28;20021;-75
2022/03/09 03:44:22;;;;;;;16.67;7.95;;;-1.60;1.00;;;;;;5053345;28;20049;-75
2022/03/09 03:47:33;;;;;;;17.95;8.02;;;-1.60;1.00;;;;;;5053024;28;20476;-75
2022/03/09 03:49:59;;;;;;;13.70;7.78;;;-1.60;1.00;;;;;;5053300;28;20025;-75
2022/03/09 03:52:46;;;;;;;21.08;9.32;;;-1.70;1.00;;;;;;5053370;28;20021;-75
2022/03/09 03:55:13;;;;;;;18.63;8.57;;;-1.20;1.00;;;;;;5053411;28;20021;-76
2022/03/09 03:57:39;;;;;;;17.30;8.02;;;-1.10;1.00;;;;;;5059688;28;20060;-75
2022/03/09 04:00:06;;;;;;;17.42;8.65;;;-1.20;1.00;;;;;;5072024;28;20052;-76
2022/03/09 04:02:31;;;;;;;14.57;8.50;;;-1.30;1.00;;;;;;5073321;28;20024;-75
2022/03/09 04:04:57;;;;;;;18.58;8.88;;;-1.50;1.00;;;;;;5073206;28;20028;-75
2022/03/09 04:07:22;;;;;;;17.45;8.43;;;-1.60;1.00;;;;;;5061783;28;20107;-75
2022/03/09 04:09:48;;;;;;;13.30;8.25;;;-1.60;1.00;;;;;;5053091;28;20020;-76
2022/03/09 04:12:14;;;;;;;15.93;9.38;;;-1.70;1.00;;;;;;5053094;28;20031;-75
2022/03/09 04:14:39;;;;;;;16.45;8.07;;;-1.60;1.00;;;;;;5055283;28;20054;-76
2022/03/09 04:17:05;;;;;;;17.02;8.85;;;-1.50;1.00;;;;;;5055234;28;20041;-76
2022/03/09 04:19:30;;;;;;;16.67;8.57;;;-1.60;1.00;;;;;;5056788;28;20040;-75
2022/03/09 04:21:56;;;;;;;19.20;8.93;;;-1.50;1.00;;;;;;5055709;28;20051;-76
2022/03/09 04:24:22;;;;;;;17.00;8.52;;;-1.60;1.00;;;;;;5055529;28;20021;-76
2022/03/09 04:26:48;;;;;;;16.38;8.52;;;-1.70;1.00;;;;;;5055678;28;20074;-76
2022/03/09 04:29:14;;;;;;;17.77;8.48;;;-1.70;1.00;;;;;;5056728;28;20021;-75
2022/03/09 04:31:40;;;;;;;17.50;8.68;;;-1.70;1.00;;;;;;5056729;28;20033;-76
2022/03/09 04:34:05;;;;;;;17.33;8.93;;;-1.70;1.00;;;;;;5055488;28;20111;-76
2022/03/09 04:36:31;;;;;;;17.00;8.32;;;-1.80;1.00;;;;;;5055474;28;20461;-75
2022/03/09 04:38:57;;;;;;;18.23;9.45;;;-1.90;1.00;;;;;;5056385;28;20616;-75
2022/03/09 04:41:22;;;;;;;16.73;8.45;;;-1.40;1.00;;;;;;5056239;28;20016;-76
2022/03/09 04:43:48;;;;;;;15.65;8.15;;;-1.60;1.00;;;;;;5055320;28;20031;-76
2022/03/09 04:46:14;;;;;;;18.60;8.93;;;-1.40;1.00;;;;;;5056609;28;20025;-76
2022/03/09 04:48:40;;;;;;;16.42;8.63;;;-1.40;1.00;;;;;;5056464;28;20480;-75
2022/03/09 04:51:06;;;;;;;16.45;8.13;;;-1.30;1.00;;;;;;5055347;28;20444;-75
2022/03/09 04:53:32;;;;;;;18.33;9.30;;;-1.40;1.00;;;;;;5056008;28;20049;-76
2022/03/09 04:55:58;;;;;;;16.05;8.80;;;-1.30;1.00;;;;;;5056072;28;20573;-75
2022/03/09 04:58:24;;;;;;;16.52;8.25;;;-1.30;1.00;;;;;;5055956;28;20037;-75
2022/03/09 05:00:50;;;;;;;14.43;7.80;;;-1.30;1.00;;;;;;5056078;28;20461;-76
2022/03/09 05:03:16;;;;;;;16.67;8.90;;;-1.40;1.00;;;;;;5056558;28;20025;-76
2022/03/09 05:05:41;;;;;;;17.63;9.02;;;-1.50;1.00;;;;;;5056016;28;20361;-75
2022/03/09 05:08:09;;;;;;;15.88;8.57;;;-1.30;1.00;;;;;;5056005;28;20021;-75
2022/03/09 05:10:35;;;;;;;16.73;8.95;;;-1.50;1.00;;;;;;5056346;28;20017;-76
2022/03/09 05:13:01;;;;;;;18.00;8.77;;;-1.60;1.00;;;;;;5055948;28;20163;-75
2022/03/09 05:15:26;;;;;;;19.90;9.18;;;-1.80;1.00;;;;;;5055633;28;20096;-75
2022/03/09 05:17:53;;;;;;;18.55;8.77;;;-1.70;1.00;;;;;;5055388;28;20400;-75
2022/03/09 05:20:20;;;;;;;17.85;9.90;;;-1.90;1.00;;;;;;5055691;28;20071;-75
2022/03/09 05:22:47;;;;;;;16.77;8.80;;;-1.90;1.00;;;;;;5056013;28;20018;-75
2022/03/09 05:25:13;;;;;;;19.58;9.48;;;-1.90;1.00;;;;;;5054930;28;20469;-75
2022/03/09 05:27:39;;;;;;;16.73;8.63;;;-2.10;1.00;;;;;;5054394;28;20150;-76
2022/03/09 05:30:06;;;;;;;18.48;8.73;;;-2.00;1.00;;;;;;5055757;28;20017;-76
2022/03/09 05:32:32;;;;;;;18.30;8.35;;;-2.00;1.00;;;;;;5054039;28;20029;-76
2022/03/09 05:34:58;;;;;;;14.35;7.82;;;-2.00;1.00;;;;;;5055644;28;20070;-76
2022/03/09 05:37:23;;;;;;;18.85;9.23;;;-1.80;1.00;;;;;;5055259;28;20025;-76
2022/03/09 05:39:49;;;;;;;17.38;8.50;;;-1.70;1.00;;;;;;5055193;28;20131;-76
2022/03/09 05:42:15;;;;;;;18.02;9.13;;;-1.60;1.00;;;;;;5055217;28;20678;-76
2022/03/09 05:44:41;;;;;;;15.68;8.73;;;-1.90;1.00;;;;;;5055360;28;20075;-77
2022/03/09 05:47:07;;;;;;;16.75;8.95;;;-1.50;1.00;;;;;;5056099;28;20104;-76
2022/03/09 05:49:33;;;;;;;17.33;8.23;;;-1.70;1.00;;;;;;5055089;28;20032;-76
2022/03/09 05:51:58;;;;;;;17.77;7.93;;;-1.80;1.00;;;;;;5053929;28;20025;-76
2022/03/09 05:54:24;;;;;;;18.08;8.38;;;-1.90;1.00;;;;;;5053809;28;20667;-76
2022/03/09 05:56:50;;;;;;;14.50;7.65;;;-1.60;1.00;;;;;;5054935;28;20194;-76
2022/03/09 05:59:15;;;;;;;18.48;8.65;;;-1.60;1.00;;;;;;5055058;28;20025;-77
2022/03/09 06:01:41;;;;;;;19.05;8.13;;;-1.50;1.00;;;;;;5055414;28;20074;-76
2022/03/09 06:04:06;;;;;;;18.58;8.63;;;-1.40;1.00;;;;;;5053907;28;20504;-76
2022/03/09 06:06:32;;;;;;;16.42;8.63;;;-1.30;1.00;;;;;;5055264;28;20383;-76
2022/03/09 06:08:58;;;;;;;18.02;9.35;;;-1.50;1.00;;;;;;5054986;28;20029;-76
2022/03/09 06:11:24;;;;;;;15.30;8.38;;;-1.70;1.00;;;;;;5053550;28;20021;-76
2022/03/09 06:13:50;;;;;;;16.83;8.57;;;-1.80;1.00;;;;;;5054514;28;20066;-76
2022/03/09 06:16:16;;;;;;;17.00;8.38;;;-1.80;1.00;;;;;;5054852;28;20404;-76
2022/03/09 06:18:41;;;;;;;17.73;8.00;;;-1.70;1.00;;;;;;5053226;28;20039;-76
2022/03/09 06:21:07;;;;;;;18.25;9.30;;;-1.80;1.00;;;;;;5054706;28;20068;-76
2022/03/09 06:23:33;;;;;;;17.35;8.32;;;-1.80;1.00;;;;;;5074360;28;20029;-77
2022/03/09 06:25:59;;;;;;;17.25;8.60;;;-1.70;1.00;;;;;;5075053;28;20066;-77
2022/03/09 06:28:25;;;;;;;16.70;8.25;;;-1.80;1.00;;;;;;5073741;28;20052;-76
2022/03/09 06:30:50;;;;;;;18.58;9.57;;;-1.70;1.00;;;;;;5074214;28;20024;-77
2022/03/09 06:33:16;;;;;;;18.20;9.55;;;-1.80;1.00;;;;;;5067356;28;20029;-76
2022/03/09 06:35:42;;;;;;;16.75;8.15;;;-1.60;1.00;;;;;;5074252;28;20025;-76
2022/03/09 06:38:07;;;;;;;15.55;8.15;;;-1.50;1.00;;;;;;5073326;28;20037;-76
2022/03/09 06:40:33;;;;;;;18.52;8.75;;;-1.50;1.00;;;;;;5074313;28;20095;-76
2022/03/09 06:42:59;;;;;;;16.27;8.90;;;-1.20;1.00;;;;;;5055273;28;20025;-77
2022/03/09 06:45:26;;;;;;;17.30;8.93;;;-1.30;1.00;;;;;;5054147;28;20025;-76
2022/03/09 06:47:52;;;;;;;17.77;8.52;;;-1.20;99.90;;;;;;5061480;28;20031;-76
2022/03/09 06:50:18;;;;;;;16.23;8.23;;;-1.00;1.00;;;;;;5052752;28;20017;-76
2022/03/09 06:52:43;;;;;;;17.73;8.52;;;-1.10;1.00;;;;;;5052676;28;20021;-76
2022/03/09 06:55:12;;;;;;;16.48;8.18;;;-0.90;99.90;;;;;;5054036;28;20028;-76
2022/03/09 06:57:38;;;;;;;17.20;8.65;;;-1.00;1.00;;;;;;5054581;28;20017;-77
2022/03/09 07:00:09;;;;;;;23.23;9.05;;;-0.80;1.00;;;;;;5052593;28;20522;-76
2022/03/09 07:02:34;;;;;;;18.13;8.63;;;-0.50;99.90;;;;;;5054129;28;20029;-76
2022/03/09 07:05:00;;;;;;;14.30;8.02;;;-0.60;99.90;;;;;;5053774;28;20031;-77
2022/03/09 07:07:25;;;;;;;16.17;8.20;;;-0.70;99.90;;;;;;5054365;28;20025;-77
2022/03/09 07:09:51;;;;;;;14.80;8.68;;;-0.70;99.90;;;;;;5052109;28;20025;-76
2022/03/09 07:12:17;;;;;;;16.42;8.63;;;-0.60;99.90;;;;;;5060825;28;20754;-77
2022/03/09 07:14:42;;;;;;;18.27;9.18;;;-0.50;99.90;;;;;;5074300;28;20361;-77
2022/03/09 07:17:08;;;;;;;18.65;8.48;;;-0.50;1.00;;;;;;5074328;28;20116;-76
2022/03/09 07:19:33;;;;;;;17.42;9.70;;;0.20;1.00;;;;;;5058115;28;20032;-76
2022/03/09 07:21:59;;;;;;;16.17;7.80;;;5.60;99.90;;;;;;5059016;28;20029;-76
2022/03/09 07:24:24;;;;;;;14.73;8.85;;;9.40;99.90;;;;;;5063927;28;20084;-76
2022/03/09 07:26:50;;;;;;;14.25;6.93;;;12.20;99.90;;;;;;5065299;28;20033;-77
2022/03/09 07:29:17;;;;;;;17.48;8.50;;;13.30;99.90;;;;;;5065377;28;20024;-77
2022/03/09 07:31:42;;;;;;;14.02;8.18;;;13.90;99.90;;;;;;5071219;28;20024;-77
2022/03/09 07:34:08;;;;;;;15.13;8.20;;;15.00;99.90;;;;;;5070542;28;20030;-77
2022/03/09 07:36:33;;;;;;;14.32;8.05;;;17.30;99.90;;;;;;5057681;28;20041;-76
2022/03/09 07:38:59;;;;;;;13.75;7.85;;;17.50;99.90;;;;;;5053955;28;20105;-76
2022/03/09 07:41:25;;;;;;;12.52;7.38;;;16.70;99.90;;;;;;5056033;28;20025;-77
2022/03/09 07:43:51;;;;;;;13.48;8.25;;;15.30;99.90;;;;;;5063438;28;20024;-78
2022/03/09 07:46:16;;;;;;;14.10;8.07;;;15.60;99.90;;;;;;5073764;28;20025;-77
2022/03/09 07:48:42;;;;;;;13.98;8.10;;;15.40;99.90;;;;;;5042619;28;20021;-77
2022/03/09 07:51:08;;;;;;;11.30;7.10;;;15.50;99.90;;;;;;5038712;28;20026;-78
2022/03/09 07:53:33;;;;;;;11.93;8.00;;;16.10;99.90;;;;;;5051799;28;20074;-77
2022/03/09 07:55:59;;;;;;;14.18;7.45;;;16.10;99.90;;;;;;5053038;28;20029;-77
2022/03/09 07:58:24;;;;;;;13.18;8.13;;;17.00;99.90;;;;;;5057296;28;20029;-77
2022/03/09 08:00:50;;;;;;;14.25;8.93;;;17.60;99.90;;;;;;5058266;28;20029;-77
2022/03/09 08:03:15;;;;;;;13.55;8.98;;;18.00;99.90;;;;;;5057996;28;20021;-78
2022/03/09 08:05:44;;;;;;;15.20;8.45;;;17.90;99.90;;;;;;5056662;28;20095;-78
2022/03/09 08:08:10;;;;;;;16.98;10.05;;;18.70;99.90;;;;;;5057807;28;20036;-78
2022/03/09 08:10:35;;;;;;;15.00;9.88;;;18.30;99.90;;;;;;5057575;28;20025;-78
2022/03/09 08:13:01;;;;;;;16.13;9.85;;;17.60;99.90;;;;;;5057766;28;20078;-77
2022/03/09 08:15:26;;;;;;;16.17;10.07;;;18.20;99.90;;;;;;5057688;28;20583;-77
2022/03/09 08:17:52;;;;;;;15.90;9.68;;;19.10;99.90;;;;;;5056807;28;20400;-77
2022/03/09 08:20:17;;;;;;;18.23;9.60;;;18.50;99.90;;;;;;5057261;28;20456;-77
2022/03/09 08:22:43;;;;;;;17.45;9.85;;;19.70;99.90;;;;;;5057419;28;20486;-77
2022/03/09 08:25:09;;;;;;;16.80;10.77;;;22.00;99.90;;;;;;5056647;28;20102;-78
2022/03/09 08:27:35;;;;;;;18.85;10.50;;;21.50;99.90;;;;;;5055279;28;20027;-75
2022/03/09 08:30:02;;;;;;;19.10;11.40;;;23.40;99.90;;;;;;5057066;28;20104;-76
2022/03/09 08:32:28;;;;;;;16.23;10.77;;;23.70;99.90;;;;;;5057154;28;20021;-76
2022/03/09 08:34:54;;;;;;;18.60;10.75;;;24.00;99.90;;;;;;5057006;28;20031;-76
2022/03/09 08:37:19;;;;;;;16.67;10.65;;;24.50;99.90;;;;;;5054264;28;20037;-76
2022/03/09 08:39:48;;;;;;;21.08;11.60;;;23.70;99.90;;;;;;5046629;28;20017;-76
2022/03/09 08:42:14;;;;;;;20.35;11.48;;;22.60;99.90;;;;;;5054654;28;20021;-76
2022/03/09 08:44:40;;;;;;;20.92;11.55;;;23.50;99.90;;;;;;5058594;28;20017;-76
2022/03/09 08:47:06;;;;;;;17.30;11.60;;;25.40;99.90;;;;;;5065618;28;20055;-76
2022/03/09 08:49:33;;;;;;;20.88;12.18;;;25.80;99.90;;;;;;5057074;28;20055;-76
2022/03/09 08:51:59;;;;;;;19.00;12.23;;;26.00;99.90;;;;;;5054848;28;20033;-76
2022/03/09 08:54:25;;;;;;;23.45;12.30;;;23.00;99.90;;;;;;5060980;28;20032;-76
2022/03/09 08:56:50;;;;;;;24.02;12.75;;;23.10;99.90;;;;;;5055729;28;20033;-76
2022/03/09 08:59:16;;;;;;;20.55;13.52;;;20.60;99.90;;;;;;5057098;28;20033;-77
2022/03/09 09:01:42;;;;;;;21.75;13.13;;;23.50;99.90;;;;;;5053712;28;20025;-77
2022/03/09 09:04:08;;;;;;;22.08;12.95;;;23.60;99.90;;;;;;5054785;28;20021;-77
2022/03/09 09:06:33;;;;;;;21.50;12.70;;;25.20;99.90;;;;;;5054554;28;20032;-77
2022/03/09 09:08:59;;;;;;;20.70;12.15;;;25.00;99.90;;;;;;5050487;28;20031;-77
2022/03/09 09:11:24;;;;;;;19.83;12.93;;;26.60;99.90;;;;;;5060677;28;20026;-77
2022/03/09 09:13:50;;;;;;;18.75;11.45;;;27.00;99.90;;;;;;5060742;28;20051;-78
2022/03/09 09:16:16;;;;;;;20.48;11.77;;;27.70;99.90;;;;;;5065442;28;20399;-77
2022/03/09 09:18:43;;;;;;;18.20;11.02;;;28.00;99.90;;;;;;5061421;28;20029;-77
2022/03/09 09:21:09;;;;;;;19.27;11.57;;;28.30;99.90;;;;;;5062849;28;20383;-76
2022/03/09 09:23:36;;;;;;;19.10;10.93;;;28.10;99.90;;;;;;5057876;28;20531;-77
2022/03/09 09:26:02;;;;;;;17.98;10.93;;;28.50;99.90;;;;;;5057835;28;20023;-75
2022/03/09 09:28:27;;;;;;;19.15;10.93;;;28.30;99.90;;;;;;5062831;28;20117;-77
2022/03/09 09:30:53;;;;;;;18.58;9.93;;;27.10;99.90;;;;;;5055354;28;20472;-77
2022/03/09 09:33:18;;;;;;;15.93;10.50;;;28.90;99.90;;;;;;5058441;28;20040;-77
2022/03/09 09:35:44;;;;;;;16.17;10.40;;;27.70;99.90;;;;;;5057317;28;20357;-78
2022/03/09 09:38:10;;;;;;;14.27;9.90;;;28.20;99.90;;;;;;5062793;28;20077;-78
2022/03/09 09:40:41;;;;;;;19.10;10.98;;;28.30;99.90;;;;;;5057852;28;20488;-77
2022/03/09 09:43:10;;;;;;;18.35;10.95;;;25.90;99.90;;;;;;5056321;28;20024;-78
2022/03/09 09:45:35;;;;;;;18.35;11.18;;;26.80;99.90;;;;;;5069092;28;20025;-78
2022/03/09 09:48:03;;;;;;;13.88;9.52;;;28.30;99.90;;;;;;5069867;28;20032;-78
2022/03/09 09:50:29;;;;;;;20.17;11.15;;;26.70;99.90;;;;;;5062675;28;20468;-77
2022/03/09 09:52:55;;;;;;;16.77;10.60;;;25.90;99.90;;;;;;5067687;28;20093;-78
2022/03/09 09:55:24;;;;;;;17.73;10.23;;;26.20;99.90;;;;;;5049676;28;20029;-78
2022/03/09 09:57:50;;;;;;;16.92;10.60;;;25.30;99.90;;;;;;5065095;28;20032;-78
2022/03/09 10:00:16;;;;;;;14.90;10.50;;;25.30;99.90;;;;;;5074024;28;20021;-78
2022/03/09 10:02:42;;;;;;;16.50;10.10;;;23.80;99.90;;;;;;5064351;28;20021;-78
2022/03/09 10:05:15;;;;;;;17.98;10.32;;;28.00;99.90;;;;;;5067050;28;20033;-78
2022/03/09 10:08:02;;;;;;;16.60;10.48;;;26.00;99.90;;;;;;5056389;28;20017;-78
2022/03/09 10:10:28;;;;;;;15.15;10.15;;;25.80;99.90;;;;;;5065198;28;20040;-77
2022/03/09 10:13:19;;;;;;;15.98;9.98;;;26.60;99.90;;;;;;5064385;28;20021;-78
2022/03/09 10:16:05;;;;;;;16.70;10.88;;;26.90;99.90;;;;;;5061316;28;20024;-78
2022/03/09 10:18:30;;;;;;;19.17;11.20;;;27.50;99.90;;;;;;5077530;28;20045;-78
2022/03/09 10:21:11;;;;;;;16.30;10.98;;;26.90;99.90;;;;;;5077598;28;20036;-78
2022/03/09 10:23:56;;;;;;;17.15;10.90;;;25.20;99.90;;;;;;5049719;28;20036;-78
2022/03/09 10:26:50;;;;;;;15.13;9.23;;;26.30;99.90;;;;;;5069105;28;20060;-78
2022/03/09 10:29:18;;;;;;;14.32;9.75;;;25.40;99.90;;;;;;5067313;28;20498;-78
2022/03/09 10:31:50;;;;;;;14.10;8.98;;;26.80;99.90;;;;;;5055191;28;20558;-77
2022/03/09 10:34:19;;;;;;;14.90;9.20;;;24.50;99.90;;;;;;5055419;28;20025;-78
2022/03/09 10:36:58;;;;;;;15.75;9.75;;;24.30;99.90;;;;;;5073118;28;20068;-78
2022/03/09 10:39:34;;;;;;;13.18;8.93;;;21.50;99.90;;;;;;5072633;28;20036;-78
2022/03/09 10:42:01;;;;;;;12.75;8.85;;;20.10;99.90;;;;;;5070258;28;20033;-78
2022/03/09 10:44:46;;;;;;;16.45;9.38;;;19.20;99.90;;;;;;5064417;28;20021;-78
2022/03/09 10:47:27;;;;;;;15.23;9.70;;;18.30;99.90;;;;;;5060748;28;20056;-78
2022/03/09 10:49:52;;;;;;;13.80;8.77;;;17.50;99.90;;;;;;5068371;28;20037;-77
2022/03/09 10:52:18;;;;;;;11.40;8.45;;;15.30;99.90;;;;;;5073959;28;20040;-78
2022/03/09 10:54:43;;;;;;;12.82;8.82;;;14.60;99.90;;;;;;5058935;28;20483;-77
2022/03/09 10:57:12;;;;;;;11.85;8.60;;;14.40;99.90;;;;;;5057729;28;20052;-78
2022/03/09 10:59:47;;;;;;;13.82;8.05;;;14.70;99.90;;;;;;5056765;28;20025;-78
2022/03/09 11:02:15;;;;;;;12.50;8.55;;;15.10;99.90;;;;;;5056920;28;20103;-78
2022/03/09 11:04:41;;;;;;;12.93;8.10;;;13.80;99.90;;;;;;5057720;28;20020;-78
2022/03/09 11:07:09;;;;;;;12.13;7.78;;;14.60;99.90;;;;;;5056257;28;20040;-78
2022/03/09 11:09:37;;;;;;;11.77;8.15;;;13.90;99.90;;;;;;5054708;28;20367;-78
2022/03/09 11:12:03;;;;;;;13.45;8.40;;;13.80;99.90;;;;;;5057419;28;20025;-78
2022/03/09 11:14:29;;;;;;;13.80;9.25;;;13.80;99.90;;;;;;5055916;28;20025;-78
2022/03/09 11:17:00;;;;;;;14.98;9.30;;;13.00;99.90;;;;;;5054971;28;20472;-78
2022/03/09 11:19:26;;;;;;;14.25;9.27;;;13.00;99.90;;;;;;5055016;28;20107;-77
2022/03/09 11:21:51;;;;;;;13.93;8.82;;;13.50;99.90;;;;;;5056671;28;20518;-77
2022/03/09 11:24:19;;;;;;;14.45;8.30;;;13.90;99.90;;;;;;5057378;28;20505;-77
2022/03/09 11:26:51;;;;;;;20.45;9.73;;;14.10;99.90;;;;;;5055859;28;20154;-78
2022/03/09 11:29:27;;;;;;;13.15;8.05;;;14.10;99.90;;;;;;5057018;28;20021;-78
2022/03/09 11:31:53;;;;;;;13.02;8.88;;;13.30;99.90;;;;;;5058313;28;20075;-78
2022/03/09 11:34:39;;;;;;;13.82;9.13;;;13.90;99.90;;;;;;5062880;28;20033;-78
2022/03/09 11:37:16;;;;;;;16.20;9.73;;;14.00;99.90;;;;;;5057712;28;20040;-78
2022/03/09 11:39:44;;;;;;;12.88;8.20;;;14.50;99.90;;;;;;5058032;28;20029;-78
2022/03/09 11:42:21;;;;;;;15.30;9.25;;;14.00;99.90;;;;;;5060014;28;20021;-78
2022/03/09 11:44:48;;;;;;;14.75;9.60;;;14.30;99.90;;;;;;5064196;28;20031;-78
2022/03/09 11:47:15;;;;;;;15.77;9.18;;;13.90;99.90;;;;;;5055182;28;20044;-77
2022/03/09 11:49:45;;;;;;;15.93;9.27;;;14.00;99.90;;;;;;5049931;28;20029;-77
2022/03/09 11:52:13;;;;;;;14.18;8.82;;;13.60;99.90;;;;;;5051810;28;20560;-77
2022/03/09 11:54:47;;;;;;;15.77;8.32;;;14.20;99.90;;;;;;5052450;28;20029;-76
2022/03/09 11:57:14;;;;;;;15.43;9.05;;;13.50;99.90;;;;;;5051870;28;20123;-77
2022/03/09 12:00:00;;;;;;;17.50;9.57;;;13.60;99.90;;;;;;5054237;28;20028;-77
2022/03/09 12:02:42;;;;;;;17.05;9.93;;;14.10;99.90;;;;;;5066843;28;20040;-77
2022/03/09 12:05:28;;;;;;;17.50;10.13;;;14.10;99.90;;;;;;5048363;28;20391;-77
2022/03/09 12:08:04;;;;;;;16.58;10.07;;;14.30;99.90;;;;;;5054320;28;20025;-76
2022/03/09 12:10:51;;;;;;;16.63;10.07;;;14.60;99.90;;;;;;5063321;28;20032;-77
2022/03/09 12:13:25;;;;;;;15.43;9.05;;;14.60;99.90;;;;;;5065066;28;20078;-77
2022/03/09 12:16:16;;;;;;;14.90;9.75;;;14.80;99.90;;;;;;5062911;28;20021;-77
2022/03/09 12:18:50;;;;;;;17.40;9.98;;;14.70;99.90;;;;;;5049283;28;20068;-77
2022/03/09 12:21:32;;;;;;;19.00;10.77;;;14.50;99.90;;;;;;5073500;28;20017;-77
2022/03/09 12:24:04;;;;;;;15.60;9.82;;;14.80;99.90;;;;;;5074129;28;20016;-77
2022/03/09 12:26:44;;;;;;;18.00;10.20;;;14.70;99.90;;;;;;5059440;28;20134;-77
2022/03/09 12:29:24;;;;;;;15.93;10.38;;;14.10;99.90;;;;;;5055586;28;20100;-77
2022/03/09 12:32:02;;;;;;;16.90;10.63;;;14.30;99.90;;;;;;5069883;28;20107;-77
2022/03/09 12:34:30;;;;;;;15.85;9.23;;;14.00;99.90;;;;;;5054534;28;20021;-77
2022/03/09 12:36:56;;;;;;;18.60;10.57;;;14.20;99.90;;;;;;5060541;28;20488;-77
2022/03/09 12:39:22;;;;;;;17.35;10.80;;;13.90;99.90;;;;;;5075588;28;20519;-78
2022/03/09 12:41:57;;;;;;;16.60;9.55;;;13.70;99.90;;;;;;5068388;28;20029;-77
2022/03/09 12:44:23;;;;;;;18.30;10.63;;;14.00;99.90;;;;;;5062245;28;20036;-78
2022/03/09 12:46:51;;;;;;;18.20;10.52;;;14.40;99.90;;;;;;5062711;28;20032;-78
2022/03/09 12:49:28;;;;;;;16.98;10.63;;;14.30;99.90;;;;;;5066150;28;20017;-78